Time;durP1;ratioP1;P1;durP2;ratioP2;P2;SDS_P1;SDS_P2;PMS_P1;PMS_P2;Temp;Humidity;BMP_temperature;BMP_pressure;BME280_temperature;BME280_humidity;BME280_pressure;Samples;Min_cycle;Max_cycle;Signal;HPM_P1;HPM_P2
2022/06/10 00:00:13;;;;;;;10.60;5.55;;;;;;;10.73;100.00;155221.16;4924660;28;20042;-84
2022/06/10 00:02:45;;;;;;;11.05;5.75;;;;;;;10.67;100.00;155207.03;4927885;29;20047;-81
2022/06/10 00:05:16;;;;;;;12.23;6.25;;;;;;;10.68;100.00;155208.31;4954910;28;20832;-87
2022/06/10 00:07:42;;;;;;;11.07;6.47;;;;;;;10.64;100.00;155199.38;4936268;28;20130;-85
2022/06/10 00:10:11;;;;;;;11.70;6.97;;;;;;;10.55;100.00;155174.94;4944639;28;20038;-83
2022/06/10 00:12:37;;;;;;;12.45;6.43;;;;;;;10.59;100.00;155185.25;4936493;28;20035;-84
2022/06/10 00:15:04;;;;;;;12.98;6.40;;;;;;;10.59;100.00;155185.25;4938728;28;20447;-84
2022/06/10 00:17:30;;;;;;;14.80;7.18;;;;;;;10.57;100.00;155181.41;4936171;28;20073;-84
2022/06/10 00:20:14;;;;;;;12.93;7.07;;;;;;;10.54;100.00;155172.41;4935902;28;20509;-85
2022/06/10 00:23:04;;;;;;;13.10;6.78;;;;;;;10.49;100.00;155162.16;4950923;28;20188;-83
2022/06/10 00:25:30;;;;;;;11.13;6.88;;;;;;;10.40;100.00;155137.78;4936612;29;20031;-84
2022/06/10 00:27:56;;;;;;;13.93;6.38;;;;;;;10.47;100.00;155157.03;4938670;28;20043;-84
2022/06/10 00:30:24;;;;;;;15.32;6.78;;;;;;;10.42;100.00;155142.91;4951406;28;20102;-83
2022/06/10 00:32:50;;;;;;;13.48;6.13;;;;;;;10.37;100.00;155130.06;4930240;29;20035;-84
2022/06/10 00:35:17;;;;;;;14.45;6.82;;;;;;;10.28;100.00;155108.19;4917845;29;20515;-83
2022/06/10 00:37:42;;;;;;;13.57;6.55;;;;;;;10.30;100.00;155114.69;4934859;29;20051;-85
2022/06/10 00:40:15;;;;;;;11.93;6.82;;;;;;;10.27;100.00;155106.94;4921800;28;20039;-82
2022/06/10 00:42:40;;;;;;;;;;;;;;;10.25;100.00;155101.81;4951590;28;20146;-83
2022/06/10 00:45:45;;;;;;;9.13;6.18;;;;;;;10.26;100.00;155103.06;4940319;28;20025;-84
2022/06/10 00:48:15;;;;;;;14.07;6.03;;;;;;;10.28;100.00;155109.53;4903041;29;20047;-83
2022/06/10 00:50:41;;;;;;;12.55;6.80;;;;;;;10.24;100.00;155099.22;4934493;29;20039;-84
2022/06/10 00:53:11;;;;;;;12.60;6.93;;;;;;;10.21;100.00;155090.22;4936810;28;20030;-82
2022/06/10 00:55:37;;;;;;;15.50;7.55;;;;;;;10.16;100.00;155078.72;4921406;29;20035;-83
2022/06/10 00:58:11;;;;;;;12.80;6.35;;;;;;;10.14;100.00;155074.84;4908157;29;20075;-83
2022/06/10 01:00:38;;;;;;;14.40;6.97;;;;;;;10.04;100.00;155047.91;4925872;29;20031;-83
2022/06/10 01:03:04;;;;;;;12.00;7.10;;;;;;;10.06;100.00;155054.34;4937823;28;20069;-83
2022/06/10 01:05:30;;;;;;;13.85;7.95;;;;;;;10.06;100.00;155054.34;4937225;29;20042;-86
2022/06/10 01:08:13;;;;;;;13.15;7.55;;;;;;;10.00;100.00;155038.97;4909118;28;20044;-85
2022/06/10 01:11:02;;;;;;;13.23;7.78;;;;;;;9.96;100.00;155027.41;4937672;29;20412;-82
2022/06/10 01:13:40;;;;;;;13.05;7.22;;;;;;;9.96;100.00;155027.41;4920587;29;20413;-84
2022/06/10 01:16:27;;;;;;;16.58;8.07;;;;;;;9.87;100.00;155005.59;4935000;29;20040;-83
2022/06/10 01:19:29;;;;;;;15.52;7.55;;;;;;;9.86;100.00;155003.06;4933680;28;20047;-83
2022/06/10 01:22:10;;;;;;;12.43;7.38;;;;;;;9.85;100.00;155001.78;4941230;29;20054;-82
2022/06/10 01:25:01;;;;;;;11.88;7.00;;;;;;;9.86;100.00;155003.06;4930752;29;20105;-82
2022/06/10 01:27:56;;;;;;;13.25;6.45;;;;;;;9.84;100.00;154999.19;4941274;28;20039;-84
2022/06/10 01:30:41;;;;;;;13.02;8.00;;;;;;;9.84;100.00;154999.19;4945901;28;20039;-84
2022/06/10 01:33:33;;;;;;;12.35;7.55;;;;;;;9.86;100.00;155004.31;4920189;28;20035;-83
2022/06/10 01:36:09;;;;;;;13.90;8.27;;;;;;;9.87;100.00;155005.59;4935906;28;20043;-83
2022/06/10 01:38:53;;;;;;;16.90;8.43;;;;;;;9.85;100.00;155001.78;4928073;29;20054;-82
2022/06/10 01:41:43;;;;;;;14.25;8.93;;;;;;;9.81;100.00;154990.22;4950873;29;20031;-85
2022/06/10 01:44:37;;;;;;;15.27;8.43;;;;;;;9.82;100.00;154994.06;4947483;28;20103;-83
2022/06/10 01:47:35;;;;;;;14.90;8.90;;;;;;;9.77;100.00;154981.25;4938836;28;20031;-83
2022/06/10 01:50:12;;;;;;;14.75;9.57;;;;;;;9.78;100.00;154982.56;4932296;28;20053;-82
2022/06/10 01:52:48;;;;;;;18.73;10.40;;;;;;;9.77;100.00;154979.97;4939004;29;20171;-83
2022/06/10 01:55:19;;;;;;;15.80;9.80;;;;;;;9.79;100.00;154986.34;4931318;29;20789;-82
2022/06/10 01:57:58;;;;;;;16.73;9.57;;;;;;;9.78;100.00;154982.56;4908002;28;20051;-83
2022/06/10 02:00:26;;;;;;;17.75;10.05;;;;;;;9.71;100.00;154967.13;4937798;29;20485;-84
2022/06/10 02:03:00;;;;;;;16.63;9.82;;;;;;;9.63;100.00;154946.63;4941733;28;20057;-84
2022/06/10 02:05:29;;;;;;;15.25;9.25;;;;;;;9.64;100.00;154947.91;4936413;28;20051;-83
2022/06/10 02:08:05;;;;;;;14.93;9.30;;;;;;;9.62;100.00;154944.03;4936215;28;20039;-81
2022/06/10 02:10:36;;;;;;;17.40;8.57;;;;;;;9.59;100.00;154936.38;4920543;29;20402;-82
2022/06/10 02:13:09;;;;;;;12.27;8.32;;;;;;;9.56;100.00;154928.66;4932937;28;20054;-82
2022/06/10 02:15:40;;;;;;;14.18;8.52;;;;;;;9.60;100.00;154938.91;4916211;29;20039;-83
2022/06/10 02:18:14;;;;;;;15.20;8.80;;;;;;;9.68;100.00;154958.16;4945649;28;20113;-83
2022/06/10 02:20:46;;;;;;;15.68;9.05;;;;;;;9.75;100.00;154977.38;4941947;29;20043;-82
2022/06/10 02:23:16;;;;;;;12.43;8.38;;;;;;;9.79;100.00;154986.34;4913742;28;20114;-83
2022/06/10 02:25:48;;;;;;;13.77;8.82;;;;;;;9.77;100.00;154981.25;4949828;28;20042;-84
2022/06/10 02:28:26;;;;;;;;;;;;;;;9.71;100.00;154967.13;4946060;28;20067;-82
2022/06/10 02:31:08;;;;;;;13.50;7.30;;;;;;;9.64;100.00;154947.91;4934802;28;19922;-83
2022/06/10 02:33:36;;;;;;;10.15;7.35;;;;;;;9.57;100.00;154931.25;4930744;29;20039;-81
2022/06/10 02:36:20;;;;;;;12.00;7.40;;;;;;;9.51;100.00;154915.84;4943597;28;20046;-86
2022/06/10 02:39:22;;;;;;;12.32;7.10;;;;;;;9.45;100.00;154900.47;4942121;28;20043;-81
2022/06/10 02:41:56;;;;;;;12.93;8.30;;;;;;;9.41;100.00;154890.22;4927625;28;20676;-83
2022/06/10 02:44:51;;;;;;;12.98;7.50;;;;;;;9.39;100.00;154886.38;4937660;29;20125;-85
2022/06/10 02:47:40;;;;;;;10.38;7.15;;;;;;;9.35;100.00;154877.38;4920100;28;20047;-81
2022/06/10 02:50:07;;;;;;;11.70;7.22;;;;;;;9.29;100.00;154860.75;4955255;28;20031;-82
2022/06/10 02:52:34;;;;;;;11.43;6.80;;;;;;;9.29;100.00;154860.75;4925118;29;20044;-82
2022/06/10 02:55:01;;;;;;;10.57;7.28;;;;;;;9.24;100.00;154847.91;4953120;28;20548;-82
2022/06/10 03:03:15;;;;;;;14.77;7.05;;;;;;;9.20;100.00;154837.66;4948625;28;20038;-83
2022/06/10 03:06:01;;;;;;;10.27;6.85;;;;;;;9.21;100.00;154840.22;4960459;28;20030;-82
2022/06/10 03:08:34;;;;;;;11.45;7.25;;;;;;;9.23;100.00;154845.34;4935619;28;20126;-82
2022/06/10 03:11:10;;;;;;;9.50;6.40;;;;;;;9.22;100.00;154842.78;4942806;29;20039;-82
2022/06/10 03:13:54;;;;;;;12.50;6.90;;;;;;;9.23;100.00;154845.34;4941402;29;20044;-82
2022/06/10 03:16:44;;;;;;;10.93;6.40;;;;;;;9.23;100.00;154846.66;4931811;29;20727;-84
2022/06/10 03:19:18;;;;;;;14.07;7.25;;;;;;;9.19;100.00;154836.34;4944730;29;20035;-81
2022/06/10 03:22:02;;;;;;;13.73;7.03;;;;;;;9.21;100.00;154840.22;4938074;29;20047;-84
2022/06/10 03:24:53;;;;;;;12.25;7.38;;;;;;;9.20;100.00;154838.94;4934193;29;20450;-84
2022/06/10 03:27:39;;;;;;;13.77;7.35;;;;;;;9.29;100.00;154862.03;4939574;28;20035;-83
2022/06/10 03:30:10;;;;;;;11.32;7.57;;;;;;;9.31;100.00;154865.88;4920955;28;20061;-82
2022/06/10 03:32:47;;;;;;;12.88;7.05;;;;;;;9.29;100.00;154860.75;4951485;28;20549;-81
2022/06/10 03:35:21;;;;;;;10.95;7.10;;;;;;;9.33;100.00;154872.25;4931232;29;20054;-85
2022/06/10 03:37:48;;;;;;;16.42;8.30;;;;;;;9.42;100.00;154892.75;4920972;28;20031;-82
2022/06/10 03:40:22;;;;;;;18.52;8.85;;;;;;;9.57;100.00;154931.25;4943319;29;20122;-82
2022/06/10 03:42:51;;;;;;;17.63;9.80;;;;;;;9.58;100.00;154933.78;4934106;29;20450;-82
2022/06/10 03:45:19;;;;;;;23.52;10.85;;;;;;;9.69;100.00;154960.75;4938477;29;20035;-83
2022/06/10 03:47:45;;;;;;;19.90;10.60;;;;;;;9.73;100.00;154972.25;4928268;28;20039;-83
2022/06/10 03:50:14;;;;;;;19.33;11.40;;;;;;;9.83;100.00;154995.34;4933059;29;20049;-83
2022/06/10 03:52:42;;;;;;;16.95;11.18;;;;;;;9.84;100.00;154999.19;4934612;29;20036;-84
2022/06/10 03:55:09;;;;;;;12.15;9.93;;;;;;;9.89;100.00;155010.75;4923593;29;20066;-84
2022/06/10 03:57:35;;;;;;;19.15;12.02;;;;;;;9.94;100.00;155023.56;4952442;28;20039;-83
2022/06/10 04:00:03;;;;;;;17.42;11.60;;;;;;;9.93;100.00;155021.00;4955200;28;20043;-82
2022/06/10 04:02:37;;;;;;;19.73;12.82;;;;;;;9.92;100.00;155018.44;4952044;28;20045;-83
2022/06/10 04:05:03;;;;;;;19.27;12.82;;;;;;;9.99;100.00;155035.13;4943555;28;20114;-84
2022/06/10 04:07:29;;;;;;;18.83;13.73;;;;;;;10.01;100.00;155040.25;4940826;29;20042;-83
2022/06/10 04:09:54;;;;;;;19.58;13.25;;;;;;;10.17;100.00;155081.31;4941323;28;20046;-83
2022/06/10 04:12:21;;;;;;;19.63;13.77;;;;;;;10.23;100.00;155096.69;4939270;28;20106;-84
2022/06/10 04:14:47;;;;;;;21.23;14.75;;;;;;;10.24;100.00;155097.94;4950356;28;20044;-84
2022/06/10 04:17:13;;;;;;;21.80;13.63;;;;;;;10.28;100.00;155109.53;4949486;28;20034;-85
2022/06/10 04:19:39;;;;;;;18.65;14.55;;;;;;;10.25;100.00;155101.81;4940716;29;20450;-83
2022/06/10 04:22:05;;;;;;;20.20;13.75;;;;;;;10.27;100.00;155106.94;4941898;29;20054;-84
2022/06/10 04:24:30;;;;;;;21.23;13.73;;;;;;;10.40;100.00;155139.06;4923643;29;20031;-84
2022/06/10 04:26:56;;;;;;;17.23;13.60;;;;;;;10.39;100.00;155135.19;4929660;29;20039;-83
2022/06/10 04:29:22;;;;;;;17.38;13.02;;;;;;;10.38;100.00;155133.94;4946775;28;20638;-84
2022/06/10 04:31:48;;;;;;;17.45;12.85;;;;;;;10.45;100.00;155150.59;4958650;28;20062;-84
2022/06/10 04:34:14;;;;;;;17.30;13.30;;;;;;;10.51;100.00;155166.00;4937960;28;20489;-82
2022/06/10 04:36:39;;;;;;;18.17;13.27;;;;;;;10.48;100.00;155158.31;4920863;29;20031;-83
2022/06/10 04:39:05;;;;;;;16.77;12.63;;;;;;;10.67;100.00;155205.75;4933337;28;20034;-83
2022/06/10 04:41:32;;;;;;;20.77;12.95;;;;;;;10.77;100.00;155230.13;4921218;29;20445;-84
2022/06/10 04:43:58;;;;;;;18.48;12.40;;;;;;;10.83;100.00;155245.50;4924049;28;20182;-83
2022/06/10 04:46:27;;;;;;;16.88;11.32;;;;;;;10.91;100.00;155266.06;4932272;29;20071;-84
2022/06/10 04:48:53;;;;;;;17.13;11.30;;;;;;;10.90;100.00;155264.75;4937659;28;20072;-84
2022/06/10 04:51:19;;;;;;;18.70;11.52;;;;;;;10.96;100.00;155278.88;4930128;29;20110;-83
2022/06/10 04:53:45;;;;;;;21.85;10.52;;;;;;;11.05;100.00;155301.97;4938528;28;20074;-82
2022/06/10 04:56:10;;;;;;;18.70;11.07;;;;;;;11.16;100.00;155327.66;4936409;28;20485;-84
2022/06/10 04:58:36;;;;;;;20.00;11.30;;;;;;;11.21;100.00;155340.53;4949344;29;20502;-83
2022/06/10 05:01:02;;;;;;;17.60;9.52;;;;;;;11.34;100.00;155373.88;4939166;28;20039;-85
2022/06/10 05:03:28;;;;;;;15.70;10.05;;;;;;;11.38;100.00;155382.88;4943458;29;20039;-84
2022/06/10 05:05:53;;;;;;;20.52;9.95;;;;;;;11.56;100.00;155427.78;4938459;28;20066;-83
2022/06/10 05:08:19;;;;;;;17.25;10.25;;;;;;;11.68;100.00;155459.88;4922553;29;20039;-82
2022/06/10 05:10:47;;;;;;;15.43;9.57;;;;;;;11.74;100.00;155472.72;4909157;28;20032;-81
2022/06/10 05:13:16;;;;;;;14.75;9.68;;;;;;;11.80;100.00;155489.41;4931751;29;20047;-84
2022/06/10 05:15:42;;;;;;;17.83;9.25;;;;;;;11.85;100.00;155500.97;4908013;29;20039;-84
2022/06/10 05:18:11;;;;;;;15.07;9.10;;;;;;;12.01;100.00;155542.09;4944642;28;20041;-83
2022/06/10 05:20:40;;;;;;;16.73;8.93;;;;;;;12.22;100.00;155593.47;4937821;29;20043;-84
2022/06/10 05:23:07;;;;;;;12.35;7.78;;;;;;;12.31;100.00;155615.31;4936296;28;20039;-83
2022/06/10 05:25:33;;;;;;;14.07;7.53;;;;;;;12.37;100.00;155631.97;4933789;29;20094;-82
2022/06/10 05:28:00;;;;;;;13.50;7.30;;;;;;;12.45;100.00;155652.56;4938996;28;20502;-83
2022/06/10 05:30:28;;;;;;;12.85;7.97;;;;;;;12.62;100.00;155693.63;4938658;29;20115;-83
2022/06/10 05:32:54;;;;;;;14.23;7.18;;;;;;;12.72;100.00;155718.09;4938122;28;20651;-82
2022/06/10 05:35:20;;;;;;;15.10;6.82;;;;;;;12.83;100.00;155747.63;4945437;28;20030;-81
2022/06/10 05:37:49;;;;;;;15.95;6.22;;;;;;;12.96;100.00;155778.44;4936922;28;20554;-83
2022/06/10 05:40:16;;;;;;;15.32;6.00;;;;;;;12.95;100.00;155777.16;4937865;28;20034;-83
2022/06/10 05:42:43;;;;;;;13.05;5.50;;;;;;;13.16;100.00;155828.56;4940488;29;20118;-82
2022/06/10 05:45:11;;;;;;;14.30;5.00;;;;;;;13.37;100.00;155882.59;4920746;29;20054;-77
2022/06/10 05:47:37;;;;;;;13.50;5.20;;;;;;;13.51;100.00;155916.03;4948219;28;20094;-82
2022/06/10 05:50:07;;;;;;;13.30;5.35;;;;;;;13.57;100.00;155932.69;4934036;28;20031;-80
2022/06/10 05:52:33;;;;;;;12.60;4.57;;;;;;;13.89;100.00;156012.41;4939804;29;20493;-81
2022/06/10 05:55:02;;;;;;;16.27;3.95;;;;;;;14.16;100.00;156079.25;4936256;28;20050;-83
2022/06/10 05:57:29;;;;;;;11.40;3.35;;;;;;;14.24;100.00;156099.84;4937860;29;20212;-85
2022/06/10 05:59:55;;;;;;;14.20;3.33;;;;;;;14.40;100.00;156139.69;4924404;28;20398;-82
2022/06/10 06:02:22;;;;;;;11.05;3.47;;;;;;;14.63;100.00;156196.34;4936523;28;20150;-84
2022/06/10 06:04:48;;;;;;;15.15;3.47;;;;;;;14.69;100.00;156213.06;4935917;28;20490;-83
2022/06/10 06:07:20;;;;;;;12.52;2.85;;;;;;;14.74;100.00;156224.63;4912419;28;20069;-82
2022/06/10 06:09:46;;;;;;;9.57;2.85;;;;;;;14.82;100.00;156243.91;4947503;28;20130;-80
2022/06/10 06:12:12;;;;;;;9.50;3.10;;;;;;;15.00;100.00;156290.25;4904231;29;20034;-80
2022/06/10 06:14:38;;;;;;;7.10;2.97;;;;;;;15.12;100.00;156321.09;4925379;29;20031;-83
2022/06/10 06:17:04;;;;;;;7.95;2.60;;;;;;;15.24;100.00;156350.72;4938810;28;20075;-83
2022/06/10 06:19:31;;;;;;;15.55;2.80;;;;;;;15.39;100.00;156388.03;4937501;29;20035;-84
2022/06/10 06:21:57;;;;;;;9.57;2.22;;;;;;;15.34;100.00;156375.16;4944212;28;20039;-85
2022/06/10 06:24:23;;;;;;;9.38;1.75;;;;;;;15.50;100.00;156416.34;4929813;29;20032;-81
2022/06/10 06:26:50;;;;;;;14.20;2.80;;;;;;;15.63;100.00;156447.19;4915628;28;20039;-83
2022/06/10 06:29:15;;;;;;;11.15;2.08;;;;;;;15.74;100.00;156475.56;4958833;28;20504;-83
2022/06/10 06:31:41;;;;;;;10.70;2.13;;;;;;;15.93;100.00;156524.44;4955870;28;20042;-85
2022/06/10 06:34:07;;;;;;;13.50;2.05;;;;;;;15.96;100.00;156530.91;4936079;28;20047;-84
2022/06/10 06:36:39;;;;;;;8.15;2.13;;;;;;;16.09;100.00;156563.09;4942963;29;20054;-83
2022/06/10 06:39:06;;;;;;;9.13;1.80;;;;;;;16.22;96.28;156596.56;4968539;28;20035;-83
2022/06/10 06:41:32;;;;;;;7.50;1.70;;;;;;;16.31;98.70;156618.44;4956287;28;20715;-85
2022/06/10 06:43:57;;;;;;;7.25;1.67;;;;;;;16.41;99.10;156644.22;4909106;28;20042;-84
2022/06/10 06:46:24;;;;;;;5.28;1.40;;;;;;;16.54;98.53;156677.69;4936856;29;20034;-85
2022/06/10 06:48:50;;;;;;;9.73;1.55;;;;;;;16.68;91.07;156711.16;4928653;28;20118;-84
2022/06/10 06:51:15;;;;;;;5.70;1.17;;;;;;;16.83;91.67;156748.56;4939228;28;20030;-85
2022/06/10 06:53:41;;;;;;;10.13;1.75;;;;;;;16.91;89.03;156769.13;4920735;29;20050;-83
2022/06/10 06:56:07;;;;;;;8.65;1.40;;;;;;;16.96;87.53;156780.75;4924347;29;20027;-83
2022/06/10 06:58:33;;;;;;;7.82;1.58;;;;;;;17.05;91.20;156803.94;4941307;29;20035;-83
2022/06/10 07:00:59;;;;;;;9.95;1.50;;;;;;;17.26;91.18;156856.75;4942096;28;20046;-84
2022/06/10 07:03:25;;;;;;;9.55;1.52;;;;;;;17.47;88.01;156909.56;4958115;28;20031;-84
2022/06/10 07:05:52;;;;;;;7.82;1.40;;;;;;;17.51;86.72;156921.13;4935580;28;20645;-86
2022/06/10 07:08:18;;;;;;;6.75;1.40;;;;;;;17.55;88.35;156928.88;4941245;28;20045;-84
2022/06/10 07:10:44;;;;;;;5.85;1.63;;;;;;;17.73;87.42;156974.00;4916623;29;20126;-83
2022/06/10 07:13:12;;;;;;;9.63;2.00;;;;;;;17.80;85.08;156993.31;4943146;28;20553;-83
2022/06/10 07:15:40;;;;;;;8.70;1.75;;;;;;;17.87;85.71;157011.38;4927382;29;20058;-85
2022/06/10 07:18:06;;;;;;;4.00;1.20;;;;;;;17.90;86.33;157019.13;4942313;28;20082;-83
2022/06/10 07:20:34;;;;;;;7.72;1.90;;;;;;;17.80;82.34;156992.00;4955720;28;20035;-85
2022/06/10 07:23:01;;;;;;;7.93;1.70;;;;;;;18.05;85.26;157056.50;4954574;28;20031;-85
2022/06/10 07:25:29;;;;;;;6.82;1.70;;;;;;;18.26;82.84;157109.31;4915453;29;20032;-86
2022/06/10 07:27:55;;;;;;;6.78;1.45;;;;;;;18.25;84.45;157105.44;4942544;28;20038;-86
2022/06/10 07:30:24;;;;;;;7.53;1.42;;;;;;;18.40;83.50;157142.81;4938777;29;20494;-86
2022/06/10 07:32:50;;;;;;;4.57;1.23;;;;;;;18.57;81.39;157186.69;4946005;28;20509;-81
2022/06/10 07:35:18;;;;;;;5.40;1.27;;;;;;;18.79;81.17;157240.81;4924620;29;20023;-82
2022/06/10 07:37:45;;;;;;;7.28;1.38;;;;;;;18.92;80.03;157273.09;4922557;29;20047;-85
2022/06/10 07:41:56;;;;;;;4.85;1.67;;;;;;;18.85;78.89;157256.31;4919204;28;20173;-85
2022/06/10 07:43:01;;;;;;;5.97;1.40;;;;;;;18.88;77.38;157264.06;4932596;28;20050;-82
2022/06/10 07:45:28;;;;;;;11.15;1.40;;;;;;;18.85;77.21;157256.31;4929842;29;20039;-86
2022/06/10 07:47:54;;;;;;;6.32;1.30;;;;;;;18.87;75.23;157261.47;4919487;28;20039;-88
2022/06/10 07:50:21;;;;;;;8.30;1.80;;;;;;;18.80;76.10;157243.41;4920319;29;20389;-87
2022/06/10 07:52:48;;;;;;;7.15;1.50;;;;;;;18.92;77.30;157273.09;4927983;29;20031;-83
2022/06/10 07:55:13;;;;;;;9.95;1.55;;;;;;;19.12;76.93;157324.69;4929773;29;20043;-84
2022/06/10 07:57:39;;;;;;;6.25;1.40;;;;;;;19.33;74.86;157377.53;4939518;29;20414;-85
2022/06/10 08:00:05;;;;;;;7.88;1.73;;;;;;;19.44;73.86;157404.63;4950958;28;20189;-81
2022/06/10 08:02:39;;;;;;;8.60;1.42;;;;;;;19.37;69.31;157387.84;4937790;29;20039;-85
2022/06/10 08:05:07;;;;;;;8.70;1.73;;;;;;;19.24;70.16;157354.31;4912489;28;20083;-85
2022/06/10 08:07:32;;;;;;;8.65;1.58;;;;;;;19.23;73.48;157351.72;4945625;28;20031;-85
2022/06/10 08:09:58;;;;;;;8.32;1.40;;;;;;;19.37;74.06;157386.56;4943322;28;20788;-85
2022/06/10 08:12:24;;;;;;;4.82;1.20;;;;;;;19.48;72.55;157413.63;4931876;28;20039;-81
2022/06/10 08:14:49;;;;;;;4.32;1.48;;;;;;;19.62;71.76;157449.75;4910409;28;20055;-84
2022/06/10 08:17:15;;;;;;;7.60;1.77;;;;;;;19.89;68.24;157518.19;4947955;28;20035;-83
2022/06/10 08:19:42;;;;;;;8.32;1.80;;;;;;;19.91;65.08;157522.03;4928359;29;20050;-81
2022/06/10 08:24:53;;;;;;;7.22;1.35;;;;;;;20.23;64.71;157604.63;4934634;28;20120;-83
2022/06/10 08:27:19;;;;;;;6.53;1.50;;;;;;;20.21;63.25;157598.13;4938594;28;20071;-83
2022/06/10 08:29:45;;;;;;;10.65;1.80;;;;;;;20.42;64.34;157652.34;4922662;28;20047;-80
2022/06/10 08:32:10;;;;;;;7.18;1.30;;;;;;;20.65;62.69;157707.91;4938290;28;20030;-81
2022/06/10 08:34:36;;;;;;;8.88;1.38;;;;;;;20.82;62.24;157751.78;4935171;28;20031;-78
2022/06/10 08:37:03;;;;;;;7.10;1.45;;;;;;;20.90;64.47;157771.13;4921822;29;20050;-83
2022/06/10 08:39:29;;;;;;;4.88;1.17;;;;;;;20.92;60.01;157777.56;4930264;29;20031;-85
2022/06/10 08:42:07;;;;;;;6.50;1.20;;;;;;;21.14;62.42;157831.81;4913761;29;20055;-83
2022/06/10 08:44:36;;;;;;;6.63;1.00;;;;;;;21.16;59.75;157838.25;4943941;28;20062;-84
2022/06/10 08:47:17;;;;;;;11.68;1.35;;;;;;;21.14;60.43;157833.09;4941879;28;20060;-81
2022/06/10 08:50:00;;;;;;;6.07;1.43;;;;;;;21.11;59.29;157824.03;4947119;28;20035;-84
2022/06/10 08:52:50;;;;;;;8.73;1.20;;;;;;;21.29;59.36;157869.25;4898280;29;20035;-84
2022/06/10 08:55:29;;;;;;;7.00;1.55;;;;;;;21.34;58.59;157882.13;4913488;29;20129;-83
2022/06/10 08:58:00;;;;;;;6.47;1.50;;;;;;;21.56;67.03;157938.97;4926959;29;20032;-84
2022/06/10 09:00:36;;;;;;;6.20;1.52;;;;;;;21.79;63.61;157995.78;4931689;28;20120;-82
2022/06/10 09:03:19;;;;;;;9.20;2.08;;;;;;;22.05;60.42;158061.66;4921251;28;20053;-84
2022/06/10 09:05:50;;;;;;;9.35;1.60;;;;;;;22.21;58.95;158100.41;4911541;28;20126;-82
2022/06/10 09:08:18;;;;;;;12.30;1.73;;;;;;;22.38;60.36;158143.06;4936859;28;20038;-83
2022/06/10 09:10:55;;;;;;;11.02;1.85;;;;;;;22.49;58.44;158171.50;4940992;28;20098;-76
2022/06/10 09:13:44;;;;;;;6.68;1.58;;;;;;;22.51;56.46;158176.69;4946825;28;20034;-82
2022/06/10 09:16:20;;;;;;;10.27;2.08;;;;;;;22.49;59.50;158171.50;4924190;28;20576;-79
2022/06/10 09:19:12;;;;;;;7.68;1.52;;;;;;;22.58;57.49;158194.75;4935353;29;20050;-84
2022/06/10 09:21:56;;;;;;;6.07;1.50;;;;;;;22.76;57.36;158239.97;4930730;29;20126;-82
2022/06/10 09:24:46;;;;;;;9.98;2.05;;;;;;;22.85;53.75;158263.25;4914274;29;20122;-84
2022/06/10 09:27:37;;;;;;;4.63;1.27;;;;;;;22.87;57.42;158268.41;4918152;29;20510;-84
2022/06/10 09:30:06;;;;;;;5.70;1.50;;;;;;;23.08;55.53;158321.41;4943082;28;20058;-81
2022/06/10 09:32:47;;;;;;;9.82;1.80;;;;;;;22.42;56.05;158154.72;4912466;29;20042;-83
2022/06/10 09:35:55;;;;;;;7.45;1.70;;;;;;;22.01;59.57;158050.06;4955460;29;20059;-78
2022/06/10 09:38:51;;;;;;;7.88;1.70;;;;;;;21.75;59.23;157985.47;4932590;28;20082;-80
2022/06/10 09:41:28;;;;;;;11.02;1.88;;;;;;;21.83;60.03;158004.84;4922560;29;20078;-82
2022/06/10 09:44:19;;;;;;;6.03;1.30;;;;;;;21.70;60.96;157973.88;4943329;28;20039;-83
2022/06/10 09:46:58;;;;;;;10.15;1.50;;;;;;;21.36;64.41;157887.28;4923869;28;20079;-82
2022/06/10 09:49:49;;;;;;;7.13;1.45;;;;;;;21.56;62.08;157938.97;4941553;28;20039;-84
2022/06/10 09:52:25;;;;;;;6.70;1.60;;;;;;;21.42;62.68;157901.47;4915720;29;20035;-84
2022/06/10 09:55:00;;;;;;;7.90;1.42;;;;;;;21.10;67.16;157821.50;4924713;29;20027;-82
2022/06/10 09:57:40;;;;;;;4.43;1.23;;;;;;;21.00;70.69;157798.25;4935035;29;20070;-84
2022/06/10 10:00:21;;;;;;;8.07;1.80;;;;;;;21.67;62.71;157966.09;4954275;28;20031;-82
2022/06/10 10:02:54;;;;;;;10.63;1.55;;;;;;;22.45;63.02;158161.16;4934666;28;20760;-84
2022/06/10 10:05:56;;;;;;;9.60;1.70;;;;;;;22.52;62.25;158179.25;4941163;28;20035;-82
2022/06/10 10:08:50;;;;;;;6.87;1.70;;;;;;;22.35;59.27;158136.63;4949973;28;20059;-83
2022/06/10 10:11:18;;;;;;;6.63;1.42;;;;;;;22.19;58.49;158095.22;4953057;28;20282;-81
2022/06/10 10:14:06;;;;;;;5.35;1.60;;;;;;;22.10;58.05;158074.59;4924478;28;20051;-76
2022/06/10 10:16:40;;;;;;;10.45;1.85;;;;;;;21.93;59.07;158031.97;4929931;29;20050;-84
2022/06/10 10:20:01;;;;;;;8.13;1.50;;;;;;;22.34;60.13;158135.34;4937570;29;20637;-84
2022/06/10 10:22:51;;;;;;;5.45;1.38;;;;;;;22.57;57.38;158190.91;4915813;29;20039;-82
2022/06/10 10:25:24;;;;;;;4.25;1.60;;;;;;;22.80;57.59;158249.03;4939372;29;20050;-78
2022/06/10 10:27:51;;;;;;;5.47;1.45;;;;;;;23.07;58.23;158318.81;4929695;28;20093;-78
2022/06/10 10:30:22;;;;;;;5.93;1.50;;;;;;;23.12;56.39;158330.47;4959673;28;20031;-79
2022/06/10 10:32:58;;;;;;;11.10;1.90;;;;;;;22.60;57.11;158199.91;4934594;29;20036;-76
2022/06/10 10:35:30;;;;;;;7.35;1.85;;;;;;;21.93;59.36;158030.69;4943478;28;20047;-80
2022/06/10 10:37:59;;;;;;;7.43;1.55;;;;;;;22.28;58.17;158119.88;4956257;28;20078;-78
2022/06/10 10:40:42;;;;;;;5.95;1.67;;;;;;;22.87;56.84;158268.41;4986050;28;20023;-76
2022/06/10 10:43:30;;;;;;;5.30;1.20;;;;;;;23.58;56.12;158445.47;4953151;28;20310;-80
2022/06/10 10:46:23;;;;;;;6.35;1.60;;;;;;;23.88;53.09;158521.78;4964900;28;20035;-80
2022/06/10 10:48:49;;;;;;;5.25;1.42;;;;;;;23.85;53.71;158514.06;4957992;28;20031;-79
2022/06/10 10:51:21;;;;;;;6.45;1.40;;;;;;;23.04;56.15;158309.81;4971405;28;20050;-83
2022/06/10 10:53:50;;;;;;;;;;;;;;;23.05;56.73;158313.66;4961649;28;20035;-82
2022/06/10 10:56:16;;;;;;;8.38;1.70;;;;;;;23.25;57.58;158362.78;4961348;28;19918;-80
2022/06/10 10:58:52;;;;;;;9.45;1.58;;;;;;;24.06;54.70;158567.06;4974093;28;20039;-79
2022/06/10 11:01:44;;;;;;;9.77;1.65;;;;;;;23.90;51.55;158528.28;4931209;29;20035;-79
2022/06/10 11:04:14;;;;;;;9.15;1.70;;;;;;;24.02;53.75;158556.72;4937753;29;20288;-76
2022/06/10 11:06:40;;;;;;;7.00;1.35;;;;;;;24.53;53.08;158684.75;4924885;28;20142;-79
2022/06/10 11:09:21;;;;;;;5.90;1.13;;;;;;;24.46;51.43;158669.16;4970246;28;20035;-78
2022/06/10 11:11:49;;;;;;;8.20;1.20;;;;;;;24.40;50.53;158653.66;4956971;28;20024;-81
2022/06/10 11:14:32;;;;;;;4.00;1.30;;;;;;;23.89;50.90;158525.66;4968685;28;20027;-78
2022/06/10 11:17:11;;;;;;;8.02;1.40;;;;;;;23.35;58.42;158387.31;4954409;28;20042;-82
2022/06/10 11:19:37;;;;;;;8.85;1.45;;;;;;;22.89;56.50;158273.56;4970983;28;20035;-81
2022/06/10 11:22:02;;;;;;;6.28;1.27;;;;;;;22.55;55.40;158188.31;4946323;28;20043;-79
2022/06/10 11:24:37;;;;;;;6.05;1.42;;;;;;;22.03;56.07;158055.22;4973005;28;20015;-81
2022/06/10 11:27:28;;;;;;;5.95;1.60;;;;;;;22.19;59.80;158096.56;4963125;28;20043;-76
2022/06/10 11:30:13;;;;;;;6.97;1.30;;;;;;;22.57;56.77;158190.91;4975346;28;20102;-81
2022/06/10 11:32:48;;;;;;;8.38;1.40;;;;;;;23.03;55.55;158308.50;4948167;29;20035;-80
2022/06/10 11:35:28;;;;;;;6.55;1.42;;;;;;;22.89;53.07;158273.56;4902793;29;20043;-81
2022/06/10 11:37:58;;;;;;;5.93;1.50;;;;;;;22.51;53.68;158177.97;4936627;28;20050;-78
2022/06/10 11:40:51;;;;;;;7.72;1.33;;;;;;;22.39;64.05;158146.97;4916736;28;20027;-78
2022/06/10 11:43:34;;;;;;;3.95;1.20;;;;;;;22.25;64.20;158110.78;4906727;29;20043;-80
2022/06/10 11:46:18;;;;;;;5.45;1.23;;;;;;;22.57;71.44;158190.91;4928928;28;20039;-81
2022/06/10 11:48:52;;;;;;;6.78;1.10;;;;;;;23.15;58.33;158336.91;4943308;28;20050;-81
2022/06/10 11:51:39;;;;;;;9.00;1.90;;;;;;;23.21;69.11;158353.75;4933361;29;20119;-81